Time;durP1;ratioP1;P1;durP2;ratioP2;P2;SDS_P1;SDS_P2;PMS_P1;PMS_P2;Temp;Humidity;BMP_temperature;BMP_pressure;BME280_temperature;BME280_humidity;BME280_pressure;Samples;Min_cycle;Max_cycle;Signal;HPM_P1;HPM_P2
2021/01/30 00:00:00;;;;;;;51.30;30.00;;;;;;;;;;5037289;28;20025;-79
2021/01/30 00:02:26;;;;;;;47.85;28.80;;;;;;;;;;5037553;28;20014;-80
2021/01/30 00:04:53;;;;;;;43.42;26.08;;;;;;;;;;5037838;28;20033;-79
2021/01/30 00:07:19;;;;;;;39.30;25.50;;;;;;;;;;5037424;28;20028;-80
2021/01/30 00:09:45;;;;;;;36.75;24.38;;;;;;;;;;5037692;28;20033;-80
2021/01/30 00:12:11;;;;;;;32.25;21.80;;;;;;;;;;5019446;28;20072;-79
2021/01/30 00:14:38;;;;;;;30.40;20.67;;;;;;;;;;5037429;28;20022;-80
2021/01/30 00:17:06;;;;;;;29.42;19.13;;;;;;;;;;5037254;28;20033;-80
2021/01/30 00:19:32;;;;;;;28.08;18.17;;;;;;;;;;5019269;28;20037;-80
2021/01/30 00:22:04;;;;;;;28.77;19.05;;;;;;;;;;5036888;28;20033;-80
2021/01/30 00:24:31;;;;;;;27.42;17.42;;;;;;;;;;5037485;28;20036;-80
2021/01/30 00:26:59;;;;;;;23.92;16.30;;;;;;;;;;5019627;28;20412;-80
2021/01/30 00:29:27;;;;;;;25.60;16.48;;;;;;;;;;5037079;28;20029;-80
2021/01/30 00:31:54;;;;;;;24.92;17.08;;;;;;;;;;5036996;28;20388;-80
2021/01/30 00:34:22;;;;;;;28.05;17.60;;;;;;;;;;5037239;28;20025;-80
2021/01/30 00:36:52;;;;;;;26.90;17.73;;;;;;;;;;5037071;28;20403;-79
2021/01/30 00:39:18;;;;;;;24.40;16.70;;;;;;;;;;5036952;28;20035;-79
2021/01/30 00:41:44;;;;;;;27.15;17.60;;;;;;;;;;5036983;28;20022;-80
2021/01/30 00:44:11;;;;;;;23.88;16.63;;;;;;;;;;5036796;28;20380;-80
2021/01/30 00:46:37;;;;;;;24.75;16.70;;;;;;;;;;5036971;28;20028;-79
2021/01/30 00:49:03;;;;;;;27.65;17.63;;;;;;;;;;5019386;28;20017;-80
2021/01/30 00:51:29;;;;;;;26.63;16.92;;;;;;;;;;5037096;28;20045;-80
2021/01/30 00:53:55;;;;;;;26.65;16.95;;;;;;;;;;5037127;28;20029;-80
2021/01/30 00:56:21;;;;;;;27.65;17.27;;;;;;;;;;5019003;28;20037;-80
2021/01/30 00:58:47;;;;;;;26.90;17.85;;;;;;;;;;5036581;28;20037;-80
2021/01/30 01:01:14;;;;;;;28.85;17.25;;;;;;;;;;5019270;28;20044;-80
2021/01/30 01:03:40;;;;;;;27.50;19.20;;;;;;;;;;5037245;28;20144;-80
2021/01/30 01:06:07;;;;;;;26.90;17.02;;;;;;;;;;5037015;28;20044;-80
2021/01/30 01:08:33;;;;;;;24.90;16.90;;;;;;;;;;5036730;28;20036;-81
2021/01/30 01:11:00;;;;;;;30.55;19.27;;;;;;;;;;5036775;28;20032;-80
2021/01/30 01:13:29;;;;;;;28.77;18.13;;;;;;;;;;5036637;28;20107;-80
2021/01/30 01:15:56;;;;;;;28.10;18.33;;;;;;;;;;5036931;28;20072;-80
2021/01/30 01:18:22;;;;;;;31.00;18.13;;;;;;;;;;5036677;28;20030;-80
2021/01/30 01:20:48;;;;;;;28.30;19.13;;;;;;;;;;5036465;28;20022;-81
2021/01/30 01:23:14;;;;;;;30.65;20.38;;;;;;;;;;5036997;28;20363;-80
2021/01/30 01:25:41;;;;;;;27.75;19.38;;;;;;;;;;5039753;28;20060;-80
2021/01/30 01:28:07;;;;;;;29.30;19.42;;;;;;;;;;5040710;28;20063;-80
2021/01/30 01:30:33;;;;;;;27.83;19.17;;;;;;;;;;5040295;28;20132;-79
2021/01/30 01:32:59;;;;;;;31.50;20.95;;;;;;;;;;5040546;28;20031;-80
2021/01/30 01:35:27;;;;;;;27.20;19.42;;;;;;;;;;5040567;28;20030;-79
2021/01/30 01:37:54;;;;;;;29.85;20.02;;;;;;;;;;5040113;28;20108;-79
2021/01/30 01:40:22;;;;;;;34.35;21.33;;;;;;;;;;5023030;28;20105;-80
2021/01/30 01:42:48;;;;;;;32.95;20.23;;;;;;;;;;5040203;28;20311;-79
2021/01/30 01:45:14;;;;;;;31.95;19.83;;;;;;;;;;5040269;28;20342;-79
2021/01/30 01:47:43;;;;;;;31.63;20.15;;;;;;;;;;5040459;28;20122;-80
2021/01/30 01:50:19;;;;;;;31.70;20.58;;;;;;;;;;5040129;28;20460;-79
2021/01/30 01:52:45;;;;;;;33.40;19.48;;;;;;;;;;5040198;28;20061;-79
2021/01/30 01:55:14;;;;;;;28.95;17.80;;;;;;;;;;5040094;28;20033;-79
2021/01/30 01:57:42;;;;;;;29.73;19.30;;;;;;;;;;5040075;28;20028;-81
2021/01/30 02:00:09;;;;;;;27.88;18.25;;;;;;;;;;5021826;28;20331;-80
2021/01/30 02:02:35;;;;;;;26.77;18.58;;;;;;;;;;5039578;28;20021;-80
2021/01/30 02:05:09;;;;;;;24.13;16.85;;;;;;;;;;5040090;28;20347;-80
2021/01/30 02:07:40;;;;;;;23.98;16.13;;;;;;;;;;5039734;28;20116;-81
2021/01/30 02:10:09;;;;;;;24.55;16.48;;;;;;;;;;5039613;28;20442;-80
2021/01/30 02:12:35;;;;;;;25.70;17.08;;;;;;;;;;5039730;28;20408;-80
2021/01/30 02:15:01;;;;;;;23.05;15.82;;;;;;;;;;5039693;28;20030;-80
2021/01/30 02:17:39;;;;;;;24.80;16.65;;;;;;;;;;5039520;28;20025;-81
2021/01/30 02:20:12;;;;;;;24.38;16.67;;;;;;;;;;5022103;28;20029;-81
2021/01/30 02:22:47;;;;;;;24.20;15.57;;;;;;;;;;5021933;28;20040;-80
2021/01/30 02:25:32;;;;;;;25.88;17.50;;;;;;;;;;5039340;28;20120;-79
2021/01/30 02:27:57;;;;;;;25.40;16.92;;;;;;;;;;5039260;28;20072;-80
2021/01/30 02:30:35;;;;;;;26.63;17.60;;;;;;;;;;5039219;28;20049;-80
2021/01/30 02:33:04;;;;;;;25.25;18.10;;;;;;;;;;5039419;28;20379;-80
2021/01/30 02:35:30;;;;;;;24.33;17.17;;;;;;;;;;5039275;28;20026;-80
2021/01/30 02:38:07;;;;;;;26.10;18.88;;;;;;;;;;5039379;28;20068;-79
2021/01/30 02:40:38;;;;;;;26.17;17.25;;;;;;;;;;5039215;28;20022;-80
2021/01/30 02:43:06;;;;;;;26.27;17.67;;;;;;;;;;5039327;28;20022;-80
2021/01/30 02:45:34;;;;;;;26.08;17.30;;;;;;;;;;5039108;28;20376;-79
2021/01/30 02:48:06;;;;;;;24.67;17.02;;;;;;;;;;5039013;28;20434;-80
2021/01/30 02:50:36;;;;;;;24.15;16.30;;;;;;;;;;5039003;28;20362;-79
2021/01/30 02:53:04;;;;;;;27.10;16.80;;;;;;;;;;5038875;28;20037;-80
2021/01/30 02:55:31;;;;;;;27.15;16.15;;;;;;;;;;5038800;28;20029;-80
2021/01/30 02:57:58;;;;;;;25.45;16.73;;;;;;;;;;5038636;28;20049;-80
2021/01/30 03:00:25;;;;;;;22.30;15.25;;;;;;;;;;5038831;28;20076;-80
2021/01/30 03:02:51;;;;;;;24.17;16.55;;;;;;;;;;5038705;28;20021;-80
2021/01/30 03:05:17;;;;;;;23.73;15.63;;;;;;;;;;5038630;28;20025;-80
2021/01/30 03:08:02;;;;;;;22.02;15.98;;;;;;;;;;5038572;28;20021;-80
2021/01/30 03:10:47;;;;;;;24.45;15.65;;;;;;;;;;5038618;28;20025;-81
2021/01/30 03:13:18;;;;;;;23.95;15.85;;;;;;;;;;5038593;28;20026;-81
2021/01/30 03:15:44;;;;;;;22.00;15.25;;;;;;;;;;5038442;28;20025;-81
2021/01/30 03:18:11;;;;;;;25.25;16.23;;;;;;;;;;5038429;28;20025;-80
2021/01/30 03:20:39;;;;;;;27.55;16.85;;;;;;;;;;5038473;28;20029;-81
2021/01/30 03:23:06;;;;;;;28.33;18.02;;;;;;;;;;5038284;28;20059;-81
2021/01/30 03:25:32;;;;;;;24.88;15.38;;;;;;;;;;5038471;28;20013;-81
2021/01/30 03:28:00;;;;;;;24.73;16.20;;;;;;;;;;5038250;28;20063;-80
2021/01/30 03:30:26;;;;;;;21.45;15.65;;;;;;;;;;5038039;28;20045;-80
2021/01/30 03:32:52;;;;;;;22.35;15.25;;;;;;;;;;5038181;28;20028;-81
2021/01/30 03:35:18;;;;;;;23.00;15.82;;;;;;;;;;5038077;28;20438;-81
2021/01/30 03:37:44;;;;;;;20.08;14.10;;;;;;;;;;5038128;28;20323;-81
2021/01/30 03:40:11;;;;;;;22.55;14.30;;;;;;;;;;5038104;28;20022;-80
2021/01/30 03:42:37;;;;;;;21.63;14.77;;;;;;;;;;5037975;28;20041;-80
2021/01/30 03:45:06;;;;;;;20.20;14.48;;;;;;;;;;5037849;28;20022;-80
2021/01/30 03:47:32;;;;;;;18.50;12.80;;;;;;;;;;5037720;28;20112;-80
2021/01/30 03:49:58;;;;;;;17.45;13.55;;;;;;;;;;5037867;28;20426;-81
2021/01/30 03:52:24;;;;;;;19.83;13.43;;;;;;;;;;5038019;28;20041;-80
2021/01/30 03:54:50;;;;;;;17.17;12.45;;;;;;;;;;5037754;28;20025;-81
2021/01/30 03:57:16;;;;;;;17.90;12.48;;;;;;;;;;5037667;28;20022;-81
2021/01/30 03:59:42;;;;;;;18.23;13.25;;;;;;;;;;5039092;28;20072;-81
2021/01/30 04:02:08;;;;;;;20.45;13.98;;;;;;;;;;5039508;28;20090;-81
2021/01/30 04:04:34;;;;;;;20.58;13.27;;;;;;;;;;5057551;28;20020;-80
2021/01/30 04:07:01;;;;;;;19.63;12.85;;;;;;;;;;5057500;28;20036;-81
2021/01/30 04:09:27;;;;;;;18.77;12.95;;;;;;;;;;5040184;28;20052;-81
2021/01/30 04:11:53;;;;;;;19.95;13.40;;;;;;;;;;5057511;28;20021;-80
2021/01/30 04:14:19;;;;;;;21.52;12.75;;;;;;;;;;5057336;28;20025;-80
2021/01/30 04:16:45;;;;;;;22.40;13.50;;;;;;;;;;5057584;28;20025;-80
2021/01/30 04:19:12;;;;;;;25.02;15.15;;;;;;;;;;5057266;28;20024;-80
2021/01/30 04:21:38;;;;;;;25.38;14.88;;;;;;;;;;5039692;28;20052;-81
2021/01/30 04:24:04;;;;;;;21.55;14.40;;;;;;;;;;5057270;28;20092;-80
2021/01/30 04:26:30;;;;;;;19.95;13.77;;;;;;;;;;5057317;28;20063;-81
2021/01/30 04:28:56;;;;;;;20.42;13.20;;;;;;;;;;5057228;28;20025;-80
2021/01/30 04:31:22;;;;;;;18.23;13.48;;;;;;;;;;5057072;28;20049;-81
2021/01/30 04:33:49;;;;;;;18.08;12.57;;;;;;;;;;5057357;28;20025;-80
2021/01/30 04:36:16;;;;;;;19.23;12.60;;;;;;;;;;5057187;28;20047;-79
2021/01/30 04:38:42;;;;;;;18.73;12.75;;;;;;;;;;5057022;28;20040;-80
2021/01/30 04:41:27;;;;;;;22.40;13.18;;;;;;;;;;5038912;28;20041;-80
2021/01/30 04:44:02;;;;;;;19.73;13.68;;;;;;;;;;5056903;28;20044;-80
2021/01/30 04:46:39;;;;;;;24.42;14.52;;;;;;;;;;5057133;28;20032;-80
2021/01/30 04:49:11;;;;;;;28.15;15.98;;;;;;;;;;5038608;28;20037;-80
2021/01/30 04:51:37;;;;;;;27.38;17.45;;;;;;;;;;5056871;28;20021;-80
2021/01/30 04:54:40;;;;;;;30.27;18.90;;;;;;;;;;5056907;28;20025;-80
2021/01/30 04:57:27;;;;;;;27.67;19.95;;;;;;;;;;5056903;28;20419;-80
2021/01/30 05:00:01;;;;;;;28.25;19.27;;;;;;;;;;5058721;28;20051;-81
2021/01/30 05:02:35;;;;;;;28.38;18.33;;;;;;;;;;5061262;28;20044;-81
2021/01/30 05:05:02;;;;;;;27.10;19.13;;;;;;;;;;5043228;28;20032;-81
2021/01/30 05:07:33;;;;;;;26.25;18.35;;;;;;;;;;5061120;28;20029;-80
2021/01/30 05:10:01;;;;;;;27.05;18.33;;;;;;;;;;5060774;28;20063;-81
2021/01/30 05:12:46;;;;;;;35.85;22.30;;;;;;;;;;5060740;28;20032;-80
2021/01/30 05:15:14;;;;;;;37.58;22.73;;;;;;;;;;5060532;28;20055;-80
2021/01/30 05:17:53;;;;;;;33.53;22.88;;;;;;;;;;5060406;28;20029;-81
2021/01/30 05:20:20;;;;;;;42.42;28.73;;;;;;;;;;5060687;28;20025;-81
2021/01/30 05:22:48;;;;;;;39.35;26.40;;;;;;;;;;5060681;28;20017;-81
2021/01/30 05:25:17;;;;;;;38.90;26.77;;;;;;;;;;5060786;28;20025;-81
2021/01/30 05:27:43;;;;;;;44.03;28.27;;;;;;;;;;5060507;28;20039;-81
2021/01/30 05:30:09;;;;;;;39.83;25.10;;;;;;;;;;5060196;28;20453;-81
2021/01/30 05:32:44;;;;;;;42.60;24.48;;;;;;;;;;5060665;28;20036;-81
2021/01/30 05:35:18;;;;;;;34.22;22.83;;;;;;;;;;5060535;28;20331;-80
2021/01/30 05:37:56;;;;;;;26.25;20.15;;;;;;;;;;5060265;28;20060;-81
2021/01/30 05:40:25;;;;;;;33.00;22.98;;;;;;;;;;5060187;28;20032;-81
2021/01/30 05:42:52;;;;;;;34.88;24.92;;;;;;;;;;5060164;28;20021;-81
2021/01/30 05:45:30;;;;;;;31.77;22.88;;;;;;;;;;5060154;28;20032;-82
2021/01/30 05:47:56;;;;;;;30.60;21.23;;;;;;;;;;5060110;28;20025;-82
2021/01/30 05:50:34;;;;;;;38.22;24.27;;;;;;;;;;5060480;28;20517;-82
2021/01/30 05:53:01;;;;;;;41.45;27.95;;;;;;;;;;5060329;28;20028;-81
2021/01/30 05:55:32;;;;;;;56.63;35.80;;;;;;;;;;5060058;28;20025;-81
2021/01/30 05:57:59;;;;;;;70.15;43.53;;;;;;;;;;5059425;28;20021;-81
2021/01/30 06:00:26;;;;;;;66.55;42.05;;;;;;;;;;5060057;28;20310;-81
2021/01/30 06:03:09;;;;;;;54.80;31.52;;;;;;;;;;5059789;28;20057;-81
2021/01/30 06:05:41;;;;;;;51.00;30.58;;;;;;;;;;5060103;28;20029;-81
2021/01/30 06:08:09;;;;;;;55.08;31.45;;;;;;;;;;5059944;28;20090;-81
2021/01/30 06:10:36;;;;;;;64.82;36.97;;;;;;;;;;5059430;28;20044;-81
2021/01/30 06:13:10;;;;;;;62.67;36.97;;;;;;;;;;5059766;28;20029;-81
2021/01/30 06:15:37;;;;;;;64.05;40.47;;;;;;;;;;5059520;28;20028;-81
2021/01/30 06:18:39;;;;;;;68.05;45.38;;;;;;;;;;5059562;28;20067;-81
2021/01/30 06:21:05;;;;;;;67.05;42.53;;;;;;;;;;4943524;29;20038;-81
2021/01/30 06:23:31;;;;;;;63.13;39.05;;;;;;;;;;4959708;29;20035;-81
2021/01/30 06:26:04;;;;;;;58.55;40.47;;;;;;;;;;4959557;29;20107;-81
2021/01/30 06:28:33;;;;;;;69.13;49.13;;;;;;;;;;4959340;29;20044;-80
2021/01/30 06:31:18;;;;;;;68.80;36.75;;;;;;;;;;4958756;29;20067;-81
2021/01/30 06:33:51;;;;;;;70.05;35.80;;;;;;;;;;4959401;29;20027;-81
2021/01/30 06:36:21;;;;;;;54.75;26.73;;;;;;;;;;4959425;29;20035;-83
2021/01/30 06:38:51;;;;;;;40.47;23.30;;;;;;;;;;4958989;29;20082;-81
2021/01/30 06:41:25;;;;;;;33.67;22.05;;;;;;;;;;4959137;29;20041;-81
2021/01/30 06:44:23;;;;;;;42.95;26.92;;;;;;;;;;4959206;29;20033;-81
2021/01/30 06:47:08;;;;;;;48.28;27.10;;;;;;;;;;4883373;29;20112;-81
2021/01/30 06:49:36;;;;;;;40.45;25.83;;;;;;;;;;4883242;29;20048;-81
2021/01/30 06:52:10;;;;;;;54.30;30.25;;;;;;;;;;4883327;29;20035;-81
2021/01/30 06:54:36;;;;;;;47.22;28.58;;;;;;;;;;4911035;28;20046;-81
2021/01/30 06:57:05;;;;;;;54.65;31.02;;;;;;;;;;4978397;28;20097;-80
2021/01/30 06:59:34;;;;;;;58.38;36.05;;;;;;;;;;4978008;28;20437;-81
2021/01/30 07:02:01;;;;;;;61.10;36.97;;;;;;;;;;4961920;28;20027;-81
2021/01/30 07:04:39;;;;;;;60.72;34.88;;;;;;;;;;4978200;28;20026;-81
2021/01/30 07:07:08;;;;;;;68.00;34.45;;;;;;;;;;4978049;28;20053;-80
2021/01/30 07:09:43;;;;;;;92.72;54.13;;;;;;;;;;4978072;28;20041;-81
2021/01/30 07:12:14;;;;;;;102.95;59.85;;;;;;;;;;4977996;28;20026;-81
2021/01/30 07:14:58;;;;;;;177.68;93.20;;;;;;;;;;4977960;28;20151;-81
2021/01/30 07:17:27;;;;;;;329.95;157.95;;;;;;;;;;4977922;28;20035;-82
2021/01/30 07:20:11;;;;;;;360.60;165.07;;;;;;;;;;4977986;28;20026;-81
2021/01/30 07:22:45;;;;;;;283.02;133.13;;;;;;;;;;5025469;28;20029;-81
2021/01/30 07:25:14;;;;;;;218.23;111.20;;;;;;;;;;5058236;28;20021;-81
2021/01/30 07:28:07;;;;;;;194.52;106.32;;;;;;;;;;5040281;28;20025;-81
2021/01/30 07:31:05;;;;;;;74.40;43.22;;;;;;;;;;5036011;28;20351;-81
2021/01/30 07:33:35;;;;;;;48.65;25.17;;;;;;;;;;4945844;29;20031;-81
2021/01/30 07:36:07;;;;;;;28.50;18.02;;;;;;;;;;4958308;29;20114;-81
2021/01/30 07:38:37;;;;;;;24.40;15.75;;;;;;;;;;4946240;29;20027;-81
2021/01/30 07:41:18;;;;;;;28.27;16.77;;;;;;;;;;4958228;29;20024;-82
2021/01/30 07:43:48;;;;;;;28.83;17.67;;;;;;;;;;4958345;29;20111;-81
2021/01/30 07:46:34;;;;;;;29.73;18.33;;;;;;;;;;4958232;29;20028;-81
2021/01/30 07:49:06;;;;;;;41.30;25.92;;;;;;;;;;4957800;29;20039;-81
2021/01/30 07:51:34;;;;;;;53.45;31.67;;;;;;;;;;4958073;29;20023;-81
2021/01/30 07:54:01;;;;;;;34.35;20.85;;;;;;;;;;4958004;29;20031;-82
2021/01/30 07:56:34;;;;;;;25.65;17.95;;;;;;;;;;4957857;29;20046;-82
2021/01/30 07:59:19;;;;;;;28.88;19.35;;;;;;;;;;4957714;29;20039;-82
2021/01/30 08:01:55;;;;;;;28.42;19.42;;;;;;;;;;4957898;29;20033;-81
2021/01/30 08:04:27;;;;;;;36.10;23.15;;;;;;;;;;4941846;29;20023;-82
2021/01/30 08:06:53;;;;;;;49.72;30.13;;;;;;;;;;4957798;29;20113;-82
2021/01/30 08:09:28;;;;;;;36.55;23.17;;;;;;;;;;5018079;28;20033;-82
2021/01/30 08:11:57;;;;;;;38.67;22.42;;;;;;;;;;5054435;28;20044;-82
2021/01/30 08:14:40;;;;;;;31.70;19.17;;;;;;;;;;5054623;28;20025;-82
2021/01/30 08:17:10;;;;;;;33.50;20.23;;;;;;;;;;5051480;28;20032;-79
2021/01/30 08:19:50;;;;;;;26.73;15.30;;;;;;;;;;5051181;28;20080;-81
2021/01/30 08:22:22;;;;;;;19.30;13.20;;;;;;;;;;5054249;28;20250;-80
2021/01/30 08:24:53;;;;;;;22.90;14.52;;;;;;;;;;5057277;28;20021;-80
2021/01/30 08:27:26;;;;;;;32.35;20.50;;;;;;;;;;5057472;28;20025;-81
2021/01/30 08:29:59;;;;;;;30.83;20.38;;;;;;;;;;5056962;28;20052;-80
2021/01/30 08:32:25;;;;;;;34.70;22.85;;;;;;;;;;5057218;28;20052;-81
2021/01/30 08:34:52;;;;;;;27.20;17.50;;;;;;;;;;5056995;28;20407;-81
2021/01/30 08:37:21;;;;;;;22.85;16.02;;;;;;;;;;5051044;28;20029;-81
2021/01/30 08:40:03;;;;;;;22.65;14.68;;;;;;;;;;5056834;28;20036;-81
2021/01/30 08:42:39;;;;;;;23.52;14.93;;;;;;;;;;5057066;28;20080;-81
2021/01/30 08:45:06;;;;;;;21.73;13.35;;;;;;;;;;5057065;28;20017;-80
2021/01/30 08:47:34;;;;;;;23.05;14.85;;;;;;;;;;5057154;28;20025;-80
2021/01/30 08:50:12;;;;;;;37.03;21.30;;;;;;;;;;5056872;28;20036;-80
2021/01/30 08:52:44;;;;;;;20.40;12.40;;;;;;;;;;5050119;28;20032;-80
2021/01/30 08:55:29;;;;;;;16.30;11.68;;;;;;;;;;5042102;28;20477;-79
2021/01/30 08:57:55;;;;;;;22.70;14.75;;;;;;;;;;5036868;28;20033;-80
2021/01/30 09:00:27;;;;;;;18.20;12.10;;;;;;;;;;5039806;28;20029;-80
2021/01/30 09:02:55;;;;;;;19.40;12.98;;;;;;;;;;5019321;28;20021;-81
2021/01/30 09:05:21;;;;;;;25.60;15.35;;;;;;;;;;5043248;28;20029;-80
2021/01/30 09:07:50;;;;;;;21.23;13.95;;;;;;;;;;5053823;28;20039;-80
2021/01/30 09:10:16;;;;;;;16.13;11.15;;;;;;;;;;5056819;28;20013;-85
2021/01/30 09:12:55;;;;;;;34.22;19.65;;;;;;;;;;5056622;28;20036;-80
2021/01/30 09:15:39;;;;;;;20.98;12.73;;;;;;;;;;5048484;28;20407;-80
2021/01/30 09:18:17;;;;;;;25.65;14.73;;;;;;;;;;5036455;28;20040;-80
2021/01/30 09:20:54;;;;;;;31.90;16.17;;;;;;;;;;5036683;28;20029;-79
2021/01/30 09:23:33;;;;;;;30.00;16.40;;;;;;;;;;5036730;28;20026;-81
2021/01/30 09:26:02;;;;;;;37.38;18.60;;;;;;;;;;5036635;28;20029;-80
2021/01/30 09:28:31;;;;;;;28.15;13.25;;;;;;;;;;5018946;28;20040;-80
2021/01/30 09:31:00;;;;;;;47.45;21.42;;;;;;;;;;5036330;28;20046;-80
2021/01/30 09:33:32;;;;;;;31.20;17.70;;;;;;;;;;5036468;28;20033;-80
2021/01/30 09:36:14;;;;;;;19.52;13.60;;;;;;;;;;5055818;28;20020;-79
2021/01/30 09:38:42;;;;;;;28.83;16.90;;;;;;;;;;5056277;28;20033;-80
2021/01/30 09:41:16;;;;;;;20.60;14.55;;;;;;;;;;5056292;28;20013;-80
2021/01/30 09:43:42;;;;;;;16.73;13.48;;;;;;;;;;5055172;28;20048;-80
2021/01/30 09:46:13;;;;;;;15.90;11.18;;;;;;;;;;5058423;28;20017;-80
2021/01/30 09:48:40;;;;;;;18.27;12.18;;;;;;;;;;5059888;28;20354;-80
2021/01/30 09:51:07;;;;;;;21.67;12.77;;;;;;;;;;5054615;28;20075;-93
2021/01/30 09:53:53;;;;;;;25.35;14.85;;;;;;;;;;5058993;28;20079;-88
2021/01/30 09:56:20;;;;;;;19.38;11.90;;;;;;;;;;5054238;28;20104;-93
2021/01/30 09:58:51;;;;;;;14.63;9.07;;;;;;;;;;5060352;28;20117;-84
2021/01/30 10:01:23;;;;;;;14.63;9.15;;;;;;;;;;5042180;28;20128;-86
2021/01/30 10:03:49;;;;;;;20.25;12.43;;;;;;;;;;5053343;28;20026;-81
2021/01/30 10:06:25;;;;;;;48.72;23.13;;;;;;;;;;5040067;28;20104;-80
2021/01/30 10:08:51;;;;;;;61.60;28.52;;;;;;;;;;5040040;28;20030;-81
2021/01/30 10:11:19;;;;;;;61.30;34.65;;;;;;;;;;5040081;28;20029;-81
2021/01/30 10:14:05;;;;;;;54.65;34.42;;;;;;;;;;5040940;28;20116;-80
2021/01/30 10:16:32;;;;;;;47.40;35.17;;;;;;;;;;5059641;28;20028;-84
2021/01/30 10:19:02;;;;;;;28.30;15.88;;;;;;;;;;5059585;28;20415;-81
2021/01/30 10:21:32;;;;;;;25.92;15.95;;;;;;;;;;5059794;28;20032;-81
2021/01/30 10:24:09;;;;;;;652.10;399.23;;;;;;;;;;5041613;28;20025;-80
2021/01/30 10:26:35;;;;;;;535.95;326.98;;;;;;;;;;5059306;28;20025;-85
2021/01/30 10:29:06;;;;;;;583.63;406.58;;;;;;;;;;5059739;28;20359;-84
2021/01/30 10:31:35;;;;;;;47.20;30.88;;;;;;;;;;5059571;28;20048;-84
2021/01/30 10:34:04;;;;;;;184.90;122.40;;;;;;;;;;5059719;28;20029;-84
2021/01/30 10:36:33;;;;;;;99.63;64.25;;;;;;;;;;5059485;28;20021;-84
2021/01/30 10:39:00;;;;;;;15.27;10.68;;;;;;;;;;5042314;28;20319;-84
2021/01/30 10:41:28;;;;;;;116.95;54.95;;;;;;;;;;5059491;28;20017;-84
2021/01/30 10:44:04;;;;;;;569.70;342.23;;;;;;;;;;5041817;28;20021;-84
2021/01/30 10:46:33;;;;;;;224.52;124.88;;;;;;;;;;5059860;28;20028;-85
2021/01/30 10:49:07;;;;;;;115.38;61.83;;;;;;;;;;5059462;28;20052;-84
2021/01/30 10:51:36;;;;;;;80.20;40.35;;;;;;;;;;5059407;28;20028;-84
2021/01/30 10:57:36;;;;;;;165.15;96.03;;;;;;;;;;5056402;28;20032;-78
2021/01/30 11:00:18;;;;;;;85.35;50.53;;;;;;;;;;5058163;28;20041;-78
2021/01/30 11:02:44;;;;;;;18.02;10.50;;;;;;;;;;5058624;28;20029;-78
2021/01/30 11:05:19;;;;;;;361.50;216.98;;;;;;;;;;5058512;28;20066;-78
2021/01/30 11:07:47;;;;;;;172.45;83.38;;;;;;;;;;5040737;28;20307;-78
2021/01/30 11:10:24;;;;;;;64.05;34.42;;;;;;;;;;5058394;28;20029;-78
2021/01/30 11:12:51;;;;;;;64.95;36.00;;;;;;;;;;5058576;28;20028;-78
2021/01/30 11:15:19;;;;;;;8.25;6.13;;;;;;;;;;5058019;28;20032;-77
2021/01/30 11:17:45;;;;;;;25.73;15.70;;;;;;;;;;5057914;28;20029;-79
2021/01/30 11:20:11;;;;;;;362.25;201.88;;;;;;;;;;5058320;28;20021;-80
2021/01/30 11:22:38;;;;;;;134.43;76.28;;;;;;;;;;5058293;28;20028;-79
2021/01/30 11:25:07;;;;;;;37.97;25.17;;;;;;;;;;5023916;28;20037;-79
2021/01/30 11:27:33;;;;;;;14.35;8.93;;;;;;;;;;5038153;28;20025;-79
2021/01/30 11:30:10;;;;;;;79.22;48.63;;;;;;;;;;5037859;28;20139;-79
2021/01/30 11:32:36;;;;;;;1015.08;596.88;;;;;;;;;;5038230;28;20017;-79
2021/01/30 11:35:04;;;;;;;119.40;70.60;;;;;;;;;;5040683;28;20021;-78
2021/01/30 11:37:30;;;;;;;938.85;550.45;;;;;;;;;;5037921;28;20030;-79
2021/01/30 11:40:01;;;;;;;308.60;155.40;;;;;;;;;;5037587;28;20052;-79
2021/01/30 11:42:27;;;;;;;346.80;188.23;;;;;;;;;;5037952;28;20277;-79
2021/01/30 11:44:53;;;;;;;162.88;91.88;;;;;;;;;;5037760;28;20030;-80
2021/01/30 11:47:19;;;;;;;32.60;20.17;;;;;;;;;;5037990;28;20026;-79
2021/01/30 11:49:47;;;;;;;158.60;79.97;;;;;;;;;;5037736;28;20116;-79
2021/01/30 11:52:17;;;;;;;114.70;65.70;;;;;;;;;;5037786;28;20035;-79
2021/01/30 11:54:44;;;;;;;49.10;26.30;;;;;;;;;;5037613;28;20048;-79
2021/01/30 11:57:10;;;;;;;250.15;126.28;;;;;;;;;;5037844;28;20028;-79
2021/01/30 11:59:36;;;;;;;560.92;314.67;;;;;;;;;;5035256;28;20135;-79
2021/01/30 12:02:02;;;;;;;178.52;78.90;;;;;;;;;;5055236;28;20036;-80
2021/01/30 12:04:28;;;;;;;48.88;24.05;;;;;;;;;;5037793;28;20037;-80
2021/01/30 12:06:54;;;;;;;39.80;22.95;;;;;;;;;;5037508;28;20097;-80
2021/01/30 12:09:20;;;;;;;165.82;75.72;;;;;;;;;;5019502;28;20383;-81
2021/01/30 12:11:46;;;;;;;105.30;51.72;;;;;;;;;;5037464;28;20071;-80
2021/01/30 12:14:12;;;;;;;49.97;28.60;;;;;;;;;;5019547;28;20043;-79
2021/01/30 12:16:38;;;;;;;123.57;58.72;;;;;;;;;;5037605;28;20037;-79
2021/01/30 12:19:05;;;;;;;118.20;55.53;;;;;;;;;;5027226;28;20029;-79
2021/01/30 12:21:31;;;;;;;211.52;96.63;;;;;;;;;;5057167;28;20403;-79
2021/01/30 12:23:57;;;;;;;1573.93;737.72;;;;;;;;;;5039254;28;20128;-79
2021/01/30 12:26:24;;;;;;;212.82;97.35;;;;;;;;;;5057252;28;20025;-79
2021/01/30 12:28:51;;;;;;;683.10;360.00;;;;;;;;;;5057021;28;20028;-79
2021/01/30 12:31:17;;;;;;;313.17;139.57;;;;;;;;;;5056910;28;20052;-79
2021/01/30 12:33:43;;;;;;;988.25;511.17;;;;;;;;;;5056982;28;20070;-79
2021/01/30 12:36:09;;;;;;;563.28;282.80;;;;;;;;;;5057140;28;20029;-79
2021/01/30 12:38:35;;;;;;;791.17;410.35;;;;;;;;;;5057074;28;20025;-84
2021/01/30 12:41:20;;;;;;;237.27;103.95;;;;;;;;;;5033853;28;20017;-81
2021/01/30 12:43:46;;;;;;;999.90;513.42;;;;;;;;;;5040714;28;20112;-81
2021/01/30 12:46:12;;;;;;;388.75;172.35;;;;;;;;;;5056854;28;20028;-80
2021/01/30 12:48:38;;;;;;;391.55;192.32;;;;;;;;;;5056667;28;20108;-80
2021/01/30 12:51:05;;;;;;;188.32;83.32;;;;;;;;;;5056779;28;20109;-80
2021/01/30 12:53:31;;;;;;;365.23;166.20;;;;;;;;;;5039008;28;20048;-81
2021/01/30 12:55:58;;;;;;;387.42;177.30;;;;;;;;;;5056943;28;20021;-81
2021/01/30 12:58:26;;;;;;;245.32;110.22;;;;;;;;;;5056367;28;20037;-80
2021/01/30 13:00:53;;;;;;;91.07;44.47;;;;;;;;;;5056613;28;20045;-81
2021/01/30 13:03:20;;;;;;;415.90;221.93;;;;;;;;;;5057055;28;20100;-81
2021/01/30 13:05:46;;;;;;;160.50;78.45;;;;;;;;;;5056642;28;20025;-81
2021/01/30 13:08:13;;;;;;;64.70;34.47;;;;;;;;;;5056582;28;20202;-81
2021/01/30 13:10:39;;;;;;;66.15;33.80;;;;;;;;;;5044258;28;20408;-81
2021/01/30 13:13:06;;;;;;;30.92;16.63;;;;;;;;;;5036691;28;20026;-80
2021/01/30 13:15:32;;;;;;;20.35;12.30;;;;;;;;;;5036778;28;20032;-80
2021/01/30 13:17:58;;;;;;;27.80;15.27;;;;;;;;;;5036691;28;20416;-81
2021/01/30 13:20:25;;;;;;;36.25;17.48;;;;;;;;;;5037534;28;20021;-81
2021/01/30 13:22:51;;;;;;;61.88;35.47;;;;;;;;;;5040446;28;20347;-81
2021/01/30 13:25:18;;;;;;;32.03;18.45;;;;;;;;;;5040782;28;20021;-80
2021/01/30 13:27:44;;;;;;;39.15;20.50;;;;;;;;;;5040748;28;20640;-80
2021/01/30 13:30:15;;;;;;;20.63;13.00;;;;;;;;;;5040295;28;20431;-80
2021/01/30 13:32:42;;;;;;;96.88;52.47;;;;;;;;;;5023069;28;20033;-80
2021/01/30 13:35:11;;;;;;;28.73;16.23;;;;;;;;;;5040394;28;20029;-80
2021/01/30 13:37:37;;;;;;;21.60;11.38;;;;;;;;;;5040307;28;20407;-81
2021/01/30 13:40:03;;;;;;;25.10;12.65;;;;;;;;;;5051103;28;20033;-80
2021/01/30 13:42:29;;;;;;;19.45;10.20;;;;;;;;;;5042311;28;20040;-81
2021/01/30 13:44:55;;;;;;;16.42;10.13;;;;;;;;;;5060204;28;20025;-80
2021/01/30 13:47:21;;;;;;;35.78;18.65;;;;;;;;;;5060300;28;20041;-80
2021/01/30 13:49:47;;;;;;;32.33;18.55;;;;;;;;;;5060303;28;20029;-80
2021/01/30 13:52:13;;;;;;;38.25;19.50;;;;;;;;;;5059704;28;20029;-80
2021/01/30 13:54:40;;;;;;;31.35;17.58;;;;;;;;;;5059941;28;20465;-80
2021/01/30 13:57:06;;;;;;;29.90;15.95;;;;;;;;;;5059940;28;20025;-80
2021/01/30 13:59:32;;;;;;;20.08;12.52;;;;;;;;;;5059851;28;20097;-81
2021/01/30 14:01:58;;;;;;;13.77;7.15;;;;;;;;;;5059982;28;20083;-80
2021/01/30 14:04:24;;;;;;;23.15;12.48;;;;;;;;;;5059724;28;20017;-80
2021/01/30 14:06:50;;;;;;;29.45;14.02;;;;;;;;;;5059692;28;20017;-80
2021/01/30 14:09:16;;;;;;;21.25;11.35;;;;;;;;;;5059498;28;20029;-80
2021/01/30 14:11:43;;;;;;;20.40;11.10;;;;;;;;;;5059892;28;20024;-80
2021/01/30 14:14:09;;;;;;;20.00;11.73;;;;;;;;;;5059629;28;20346;-81
2021/01/30 14:16:38;;;;;;;34.47;22.75;;;;;;;;;;5059708;28;20104;-80
2021/01/30 14:19:04;;;;;;;19.20;11.07;;;;;;;;;;5059433;28;20045;-80
2021/01/30 14:21:30;;;;;;;15.32;7.72;;;;;;;;;;5059224;28;20025;-80
2021/01/30 14:23:56;;;;;;;85.80;38.40;;;;;;;;;;5059512;28;20362;-80
2021/01/30 14:26:25;;;;;;;83.93;44.03;;;;;;;;;;5059473;28;20017;-80
2021/01/30 14:28:51;;;;;;;35.30;20.30;;;;;;;;;;5059194;28;20036;-80
2021/01/30 14:31:17;;;;;;;26.50;13.93;;;;;;;;;;5059150;28;20083;-80